createdAt,value
2017-12-21T00:00:13.953Z,98299.38
2017-12-21T00:02:39.846Z,98306.67
2017-12-21T00:05:09.550Z,98301.19
2017-12-21T00:07:35.441Z,98302.02
2017-12-21T00:10:02.782Z,98300.69
2017-12-21T00:12:28.726Z,98305.03
2017-12-21T00:14:57.713Z,98301.16
2017-12-21T00:17:23.583Z,98308.43
2017-12-21T00:19:53.368Z,98308.00
2017-12-21T00:22:31.452Z,98316.08
2017-12-21T00:24:57.291Z,98318.13
2017-12-21T00:27:23.133Z,98323.59
2017-12-21T00:29:49.060Z,98327.44
2017-12-21T00:32:14.896Z,98325.58
2017-12-21T00:34:40.753Z,98319.52
2017-12-21T00:37:06.625Z,98323.83
2017-12-21T00:39:32.534Z,98328.58
2017-12-21T00:41:58.399Z,98323.83
2017-12-21T00:44:24.274Z,98328.07
2017-12-21T00:46:50.161Z,98322.45
2017-12-21T00:49:16.043Z,98325.64
2017-12-21T00:51:43.200Z,98314.46
2017-12-21T00:54:09.036Z,98315.27
2017-12-21T00:56:37.959Z,98326.91
2017-12-21T00:59:03.830Z,98325.20
2017-12-21T01:01:32.720Z,98332.44
2017-12-21T01:03:58.624Z,98333.67
2017-12-21T01:06:24.455Z,98329.41
2017-12-21T01:08:50.368Z,98331.26
2017-12-21T01:11:16.231Z,98323.51
2017-12-21T01:13:43.796Z,98315.49
2017-12-21T01:16:09.648Z,98319.46
2017-12-21T01:18:38.199Z,98308.75
2017-12-21T01:21:04.033Z,98310.15
2017-12-21T01:26:00.888Z,98308.05
2017-12-21T01:28:28.333Z,98311.50
2017-12-21T01:30:54.182Z,98317.55
2017-12-21T01:33:22.543Z,98324.01
2017-12-21T01:35:48.447Z,98320.62
2017-12-21T01:38:17.368Z,98318.80
2017-12-21T01:40:43.294Z,98313.72
2017-12-21T01:43:09.181Z,98303.33
2017-12-21T01:45:35.074Z,98305.48
2017-12-21T01:48:00.980Z,98304.24
2017-12-21T01:50:30.685Z,98310.31
2017-12-21T01:52:56.542Z,98309.85
2017-12-21T01:55:24.284Z,98319.31
2017-12-21T01:57:50.168Z,98315.90
2017-12-21T02:00:19.958Z,98315.87
2017-12-21T02:02:45.858Z,98314.56
2017-12-21T02:05:13.490Z,98310.73
2017-12-21T02:07:39.347Z,98307.71
2017-12-21T02:10:08.974Z,98312.36
2017-12-21T02:12:34.830Z,98308.89
2017-12-21T02:15:03.020Z,98310.23
2017-12-21T02:17:28.959Z,98308.95
2017-12-21T02:19:54.879Z,98310.70
2017-12-21T02:22:21.600Z,98316.22
2017-12-21T02:24:47.444Z,98321.28
2017-12-21T02:27:14.896Z,98331.58
2017-12-21T02:29:40.755Z,98328.12
2017-12-21T02:32:09.645Z,98326.76
2017-12-21T02:34:35.486Z,98321.20
2017-12-21T02:37:05.380Z,98315.58
2017-12-21T02:39:31.271Z,98310.13
2017-12-21T02:42:00.202Z,98320.03
2017-12-21T02:44:26.049Z,98317.05
2017-12-21T02:46:55.149Z,98315.28
2017-12-21T02:49:21.054Z,98313.98
2017-12-21T02:51:48.832Z,98317.39
2017-12-21T02:54:14.765Z,98311.78
2017-12-21T02:56:40.609Z,98304.39
2017-12-21T02:59:06.490Z,98303.55
2017-12-21T03:01:32.363Z,98314.77
2017-12-21T03:04:01.482Z,98326.75
2017-12-21T03:06:27.411Z,98319.37
2017-12-21T03:08:55.189Z,98329.34
2017-12-21T03:11:21.085Z,98327.72
2017-12-21T03:13:50.170Z,98322.98
2017-12-21T03:16:16.061Z,98319.98
2017-12-21T03:18:45.784Z,98321.66
2017-12-21T03:21:11.702Z,98315.25
2017-12-21T03:23:40.625Z,98305.78
2017-12-21T03:26:06.494Z,98304.54
2017-12-21T03:28:35.425Z,98307.48
2017-12-21T03:31:01.284Z,98310.09
2017-12-21T03:33:27.133Z,98299.71
2017-12-21T03:35:52.986Z,98286.76
2017-12-21T03:38:18.832Z,98288.58
2017-12-21T03:40:45.399Z,98298.86
2017-12-21T03:43:11.250Z,98303.98
2017-12-21T03:45:40.246Z,98302.30
2017-12-21T03:48:06.111Z,98303.92
2017-12-21T03:50:35.681Z,98300.53
2017-12-21T03:53:01.562Z,98296.58
2017-12-21T03:55:30.569Z,98292.30
2017-12-21T03:57:56.443Z,98286.73
2017-12-21T04:00:25.247Z,98289.74
2017-12-21T04:02:51.149Z,98288.86
2017-12-21T04:05:19.950Z,98283.75
2017-12-21T04:07:45.827Z,98300.92
2017-12-21T04:10:11.653Z,98305.28
2017-12-21T04:12:37.501Z,98306.53
2017-12-21T04:15:03.348Z,98316.00
2017-12-21T04:17:30.511Z,98318.48
2017-12-21T04:19:56.378Z,98312.46
2017-12-21T04:22:25.893Z,98310.36
2017-12-21T04:24:51.749Z,98317.60
2017-12-21T04:27:19.873Z,98316.31
2017-12-21T04:29:45.727Z,98307.27
2017-12-21T04:32:14.378Z,98310.78
2017-12-21T04:34:40.252Z,98311.23
2017-12-21T04:39:37.009Z,98332.00
2017-12-21T04:42:04.531Z,98328.20
2017-12-21T04:44:30.462Z,98331.20
2017-12-21T04:46:56.335Z,98330.30
2017-12-21T04:49:22.202Z,98331.95
2017-12-21T04:51:48.063Z,98328.98
2017-12-21T04:54:16.699Z,98325.95
2017-12-21T04:56:42.574Z,98330.17
2017-12-21T04:59:11.492Z,98321.12
2017-12-21T05:01:37.371Z,98321.09
2017-12-21T05:04:06.255Z,98325.45
2017-12-21T05:06:32.129Z,98331.81
2017-12-21T05:09:00.878Z,98323.64
2017-12-21T05:11:26.770Z,98332.63
2017-12-21T05:13:59.119Z,98337.78
2017-12-21T05:16:24.980Z,98334.77
2017-12-21T05:18:50.916Z,98332.13
2017-12-21T05:21:16.771Z,98323.62
2017-12-21T05:23:42.676Z,98323.91
2017-12-21T05:26:08.528Z,98327.37
2017-12-21T05:28:34.418Z,98321.38
2017-12-21T05:31:01.757Z,98323.53
2017-12-21T05:33:27.610Z,98320.52
2017-12-21T05:35:56.468Z,98321.41
2017-12-21T05:38:22.270Z,98316.72
2017-12-21T05:40:52.132Z,98317.55
2017-12-21T05:43:18.017Z,98315.76
2017-12-21T05:45:46.920Z,98306.76
2017-12-21T05:48:12.798Z,98316.28
2017-12-21T05:50:41.845Z,98319.72
2017-12-21T05:53:07.758Z,98320.97
2017-12-21T05:55:35.517Z,98325.31
2017-12-21T05:58:01.370Z,98322.69
2017-12-21T06:00:27.318Z,98329.53
2017-12-21T06:02:53.252Z,98329.55
2017-12-21T06:05:19.105Z,98335.59
2017-12-21T06:07:46.811Z,98318.19
2017-12-21T06:10:12.731Z,98331.00
2017-12-21T06:12:41.699Z,98327.61
2017-12-21T06:15:07.544Z,98327.13
2017-12-21T06:17:36.709Z,98331.03
2017-12-21T06:20:02.644Z,98330.55
2017-12-21T06:22:32.413Z,98325.84
2017-12-21T06:24:58.284Z,98321.54
2017-12-21T06:27:26.054Z,98326.65
2017-12-21T06:29:51.896Z,98330.48
2017-12-21T06:32:21.734Z,98326.58
2017-12-21T06:34:47.595Z,98318.86
2017-12-21T06:37:13.442Z,98326.23
2017-12-21T06:39:39.491Z,98325.34
2017-12-21T06:42:05.282Z,98328.75
2017-12-21T06:44:32.474Z,98328.70
2017-12-21T06:46:58.341Z,98323.51
2017-12-21T06:49:27.197Z,98325.24
2017-12-21T06:51:53.044Z,98333.41
2017-12-21T06:54:22.124Z,98328.67
2017-12-21T06:56:47.972Z,98330.39
2017-12-21T06:59:16.867Z,98325.59
2017-12-21T07:01:42.708Z,98304.20
2017-12-21T07:04:12.537Z,98319.52
2017-12-21T07:06:38.408Z,98323.48
2017-12-21T07:09:07.374Z,98319.56
2017-12-21T07:11:33.201Z,98317.01
2017-12-21T07:13:59.008Z,98317.83
2017-12-21T07:16:24.850Z,98325.98
2017-12-21T07:18:50.657Z,98321.29
2017-12-21T07:21:17.164Z,98310.82
2017-12-21T07:23:43.000Z,98308.70
2017-12-21T07:26:12.326Z,98313.86
2017-12-21T07:28:38.169Z,98319.37
2017-12-21T07:31:08.020Z,98324.02
2017-12-21T07:33:33.821Z,98328.69
2017-12-21T07:36:01.676Z,98328.28
2017-12-21T07:38:27.507Z,98338.09
2017-12-21T07:40:57.252Z,98339.39
2017-12-21T07:43:23.119Z,98334.10
2017-12-21T07:45:51.834Z,98333.16
2017-12-21T07:48:17.655Z,98336.92
2017-12-21T07:50:43.459Z,98341.95
2017-12-21T07:53:09.344Z,98334.51
2017-12-21T07:55:35.206Z,98345.17
2017-12-21T07:58:02.738Z,98348.11
2017-12-21T08:00:28.547Z,98351.87
2017-12-21T08:02:57.493Z,98345.61
2017-12-21T08:05:23.336Z,98338.14
2017-12-21T08:07:53.317Z,98345.46
2017-12-21T08:10:19.147Z,98340.41
2017-12-21T08:12:48.122Z,98343.47
2017-12-21T08:15:13.935Z,98344.45
2017-12-21T08:17:43.016Z,98344.43
2017-12-21T08:20:08.875Z,98338.48
2017-12-21T08:22:36.635Z,98339.48
2017-12-21T08:25:02.513Z,98342.95
2017-12-21T08:27:28.350Z,98344.31
2017-12-21T08:29:54.163Z,98346.04
2017-12-21T08:32:20.024Z,98349.44
2017-12-21T08:34:47.892Z,98347.73
2017-12-21T08:37:13.710Z,98355.86
2017-12-21T08:39:43.104Z,98355.42
2017-12-21T08:42:08.972Z,98355.91
2017-12-21T08:44:38.597Z,98354.59
2017-12-21T08:47:04.432Z,98358.50
2017-12-21T08:49:32.218Z,98365.75
2017-12-21T08:51:58.077Z,98369.61
2017-12-21T08:54:27.876Z,98367.47
2017-12-21T08:56:53.760Z,98362.37
2017-12-21T08:59:21.538Z,98363.63
2017-12-21T09:01:47.344Z,98364.05
2017-12-21T09:04:13.207Z,98367.91
2017-12-21T09:06:39.058Z,98369.63
2017-12-21T09:09:04.917Z,98372.55
2017-12-21T09:11:33.833Z,98372.05
2017-12-21T09:13:59.681Z,98381.19
2017-12-21T09:16:29.384Z,98378.57
2017-12-21T09:18:55.203Z,98373.88
2017-12-21T09:21:23.440Z,98381.20
2017-12-21T09:23:49.281Z,98380.23
2017-12-21T09:26:17.524Z,98381.03
2017-12-21T09:28:43.364Z,98380.14
2017-12-21T09:31:12.429Z,98374.02
2017-12-21T09:33:38.307Z,98372.66
2017-12-21T09:36:08.087Z,98372.61
2017-12-21T09:38:33.928Z,98373.80
2017-12-21T09:40:59.850Z,98373.80
2017-12-21T09:43:25.670Z,98373.18
2017-12-21T09:45:51.556Z,98373.09
2017-12-21T09:48:19.239Z,98371.13
2017-12-21T09:50:45.080Z,98365.45
2017-12-21T09:53:13.018Z,98370.84
2017-12-21T09:55:38.866Z,98368.46
2017-12-21T09:58:07.878Z,98364.80
2017-12-21T10:00:33.748Z,98361.33
2017-12-21T10:03:03.244Z,98358.33
2017-12-21T10:05:29.103Z,98362.85
2017-12-21T10:07:58.527Z,98354.53
2017-12-21T10:10:24.330Z,98352.00
2017-12-21T10:12:52.044Z,98357.89
2017-12-21T10:15:17.853Z,98356.55
2017-12-21T10:17:43.695Z,98363.61
2017-12-21T10:20:09.529Z,98357.68
2017-12-21T10:22:35.358Z,98361.30
2017-12-21T10:25:04.539Z,98355.35
2017-12-21T10:29:54.926Z,98342.80
2017-12-21T10:32:20.782Z,98346.80
2017-12-21T10:34:46.622Z,98344.69
2017-12-21T10:37:12.521Z,98350.64
2017-12-21T10:39:38.378Z,98349.81
2017-12-21T10:42:04.241Z,98334.42
2017-12-21T10:44:33.846Z,98343.28
2017-12-21T10:46:59.726Z,98342.77
2017-12-21T10:49:25.629Z,98341.42
2017-12-21T10:51:51.501Z,98340.88
2017-12-21T10:54:17.358Z,98345.94
2017-12-21T10:56:44.941Z,98339.94
2017-12-21T10:59:10.818Z,98341.68
2017-12-21T11:01:40.351Z,98339.87
2017-12-21T11:04:06.198Z,98343.77
2017-12-21T11:06:35.221Z,98336.77
2017-12-21T11:09:01.163Z,98332.95
2017-12-21T11:11:30.067Z,98338.52
2017-12-21T11:13:55.975Z,98334.64
2017-12-21T11:16:23.168Z,98329.97
2017-12-21T11:18:49.080Z,98335.09
2017-12-21T11:21:17.742Z,98331.52
2017-12-21T11:23:43.619Z,98325.95
2017-12-21T11:26:09.628Z,98323.72
2017-12-21T11:28:35.592Z,98319.11
2017-12-21T11:31:02.795Z,98319.14
2017-12-21T11:33:29.921Z,98317.34
2017-12-21T11:35:55.753Z,98317.05
2017-12-21T11:38:25.264Z,98163.79
2017-12-21T11:40:51.131Z,98308.20
2017-12-21T11:43:20.122Z,98302.05
2017-12-21T11:45:45.998Z,98304.64
2017-12-21T11:48:15.190Z,98302.89
2017-12-21T11:50:41.045Z,98295.00
2017-12-21T11:53:19.827Z,98295.38
2017-12-21T11:55:46.319Z,98294.03
2017-12-21T11:58:12.234Z,98300.03
2017-12-21T12:00:38.102Z,98298.55
2017-12-21T12:03:03.995Z,98295.89
2017-12-21T12:05:29.883Z,98297.59
2017-12-21T12:07:55.787Z,98287.72
2017-12-21T12:10:21.671Z,98273.05
2017-12-21T12:12:47.530Z,98259.06
2017-12-21T12:15:19.856Z,98266.54
2017-12-21T12:17:45.762Z,98262.20
2017-12-21T12:20:11.662Z,98261.39
2017-12-21T12:22:37.558Z,98257.42
2017-12-21T12:25:03.431Z,98254.89
2017-12-21T12:27:29.298Z,98255.24
2017-12-21T12:29:55.160Z,98244.41
2017-12-21T12:32:21.034Z,98244.31
2017-12-21T12:34:49.956Z,98242.13
2017-12-21T12:40:22.853Z,98241.33
2017-12-21T12:42:48.763Z,98241.30
2017-12-21T12:45:14.671Z,98252.11
2017-12-21T12:47:40.532Z,98240.86
2017-12-21T12:50:06.408Z,98249.36
2017-12-21T12:52:32.331Z,98254.92
2017-12-21T12:54:58.214Z,98247.23
2017-12-21T12:57:24.098Z,98250.88
2017-12-21T12:59:50.778Z,98252.30
2017-12-21T13:02:25.407Z,98257.64
2017-12-21T13:04:51.275Z,98255.96
2017-12-21T13:07:17.221Z,98251.30
2017-12-21T13:09:43.077Z,98250.94
2017-12-21T13:12:08.968Z,98253.50
2017-12-21T13:14:34.833Z,98247.06
2017-12-21T13:17:00.669Z,98257.82
2017-12-21T13:19:26.575Z,98240.16
2017-12-21T13:21:52.444Z,98248.05
2017-12-21T13:24:25.871Z,98247.69
2017-12-21T13:26:51.760Z,98245.25
2017-12-21T13:29:17.614Z,98247.84
2017-12-21T13:31:43.493Z,98245.28
2017-12-21T13:34:09.324Z,98238.88
2017-12-21T13:36:35.189Z,98242.75
2017-12-21T13:39:01.574Z,98237.16
2017-12-21T13:41:27.493Z,98238.84
2017-12-21T13:43:53.320Z,98236.34
2017-12-21T13:46:41.388Z,98233.76
2017-12-21T13:49:07.699Z,98232.95
2017-12-21T13:51:33.599Z,98232.52
2017-12-21T13:53:59.490Z,98233.37
2017-12-21T13:56:25.366Z,98235.68
2017-12-21T13:58:51.529Z,98231.34
2017-12-21T14:01:17.432Z,98239.62
2017-12-21T14:03:43.336Z,98239.62
2017-12-21T14:06:09.193Z,98230.05
2017-12-21T14:08:36.923Z,98239.52
2017-12-21T14:11:02.843Z,98227.88
2017-12-21T14:13:28.765Z,98230.73
2017-12-21T14:15:54.652Z,98239.37
2017-12-21T14:18:20.493Z,98238.00
2017-12-21T14:20:46.401Z,98233.51
2017-12-21T14:23:12.679Z,98231.76
2017-12-21T14:25:38.618Z,98237.01
2017-12-21T14:28:19.013Z,98239.09
2017-12-21T14:30:44.918Z,98243.73
2017-12-21T14:33:10.805Z,98239.31
2017-12-21T14:35:36.664Z,98251.02
2017-12-21T14:38:02.529Z,98246.91
2017-12-21T14:40:28.422Z,98243.38
2017-12-21T14:42:54.299Z,98224.33
2017-12-21T14:45:20.219Z,98244.39
2017-12-21T14:47:46.252Z,98242.63
2017-12-21T14:50:22.311Z,98244.02
2017-12-21T14:52:48.198Z,98252.79
2017-12-21T14:55:14.068Z,98250.20
2017-12-21T14:57:39.941Z,98253.70
2017-12-21T15:00:05.857Z,98249.03
2017-12-21T15:02:31.690Z,98255.11
2017-12-21T15:04:57.621Z,98252.45
2017-12-21T15:07:23.627Z,98248.40
2017-12-21T15:09:49.472Z,98254.92
2017-12-21T15:12:24.196Z,98252.79
2017-12-21T15:14:50.048Z,98252.41
2017-12-21T15:17:15.983Z,98249.74
2017-12-21T15:19:41.850Z,98250.60
2017-12-21T15:22:07.700Z,98250.89
2017-12-21T15:24:33.639Z,98256.12
2017-12-21T15:26:59.484Z,98250.79
2017-12-21T15:29:25.309Z,98242.05
2017-12-21T15:31:51.184Z,98248.00
2017-12-21T15:34:17.070Z,98259.48
2017-12-21T15:36:42.930Z,98253.31
2017-12-21T15:39:09.611Z,98257.64
2017-12-21T15:41:35.554Z,98257.56
2017-12-21T15:44:01.430Z,98253.67
2017-12-21T15:46:27.279Z,98257.94
2017-12-21T15:48:53.148Z,98258.48
2017-12-21T15:51:19.090Z,98271.39
2017-12-21T15:54:00.438Z,98274.69
2017-12-21T15:56:26.301Z,98283.27
2017-12-21T15:58:52.211Z,98277.48
2017-12-21T16:01:18.089Z,98274.81
2017-12-21T16:03:43.998Z,98282.67
2017-12-21T16:06:09.885Z,98285.66
2017-12-21T16:08:35.794Z,98284.90
2017-12-21T16:11:01.721Z,98287.97
2017-12-21T16:13:27.605Z,98287.97
2017-12-21T16:15:53.507Z,98293.66
2017-12-21T16:18:19.436Z,98291.98
2017-12-21T16:20:45.329Z,98292.36
2017-12-21T16:23:11.228Z,98302.67
2017-12-21T16:25:37.104Z,98309.45
2017-12-21T16:28:02.949Z,98311.63
2017-12-21T16:30:28.857Z,98311.00
2017-12-21T16:32:54.769Z,98317.45
2017-12-21T16:35:22.797Z,98318.25
2017-12-21T16:37:48.661Z,98321.36
2017-12-21T16:40:14.783Z,98313.43
2017-12-21T16:42:40.663Z,98320.36
2017-12-21T16:45:06.522Z,98331.56
2017-12-21T16:47:32.477Z,98332.98
2017-12-21T16:49:58.329Z,98321.94
2017-12-21T16:52:24.227Z,98335.41
2017-12-21T16:54:50.096Z,98324.22
2017-12-21T16:57:16.218Z,98334.88
2017-12-21T16:59:42.125Z,98337.83
2017-12-21T17:02:08.019Z,98335.11
2017-12-21T17:04:33.945Z,98340.80
2017-12-21T17:06:59.806Z,98342.43
2017-12-21T17:09:25.723Z,98345.06
2017-12-21T17:11:51.634Z,98347.63
2017-12-21T17:14:17.532Z,98344.61
2017-12-21T17:16:43.407Z,98343.13
2017-12-21T17:19:12.734Z,98351.33
2017-12-21T17:21:38.627Z,98349.50
2017-12-21T17:24:04.598Z,98353.44
2017-12-21T17:26:30.529Z,98357.06
2017-12-21T17:28:56.432Z,98366.58
2017-12-21T17:31:22.348Z,98354.48
2017-12-21T17:33:48.304Z,98359.57
2017-12-21T17:36:14.201Z,98364.89
2017-12-21T17:38:40.087Z,98369.59
2017-12-21T17:41:12.816Z,98380.05
2017-12-21T17:43:40.515Z,98354.53
2017-12-21T17:46:06.488Z,98380.86
2017-12-21T17:48:32.378Z,98383.95
2017-12-21T17:50:58.338Z,98379.66
2017-12-21T17:53:24.269Z,98380.89
2017-12-21T17:55:50.178Z,98377.38
2017-12-21T17:58:16.057Z,98370.43
2017-12-21T18:00:42.113Z,98370.00
2017-12-21T18:03:08.072Z,98375.13
2017-12-21T18:05:37.975Z,98370.84
2017-12-21T18:08:03.874Z,98366.44
2017-12-21T18:10:29.759Z,98362.02
2017-12-21T18:12:55.628Z,98362.55
2017-12-21T18:15:21.530Z,98357.66
2017-12-21T18:17:48.087Z,98362.73
2017-12-21T18:20:14.002Z,98366.12
2017-12-21T18:22:42.913Z,98367.41
2017-12-21T18:25:08.910Z,98369.02
2017-12-21T18:27:38.169Z,98365.11
2017-12-21T18:30:04.177Z,98364.67
2017-12-21T18:32:33.213Z,98365.97
2017-12-21T18:34:59.133Z,98371.16
2017-12-21T18:37:28.568Z,98374.48
2017-12-21T18:39:54.491Z,98364.90
2017-12-21T18:42:22.217Z,98365.89
2017-12-21T18:44:48.077Z,98372.88
2017-12-21T18:47:14.408Z,98376.43
2017-12-21T18:49:40.372Z,98374.37
2017-12-21T18:52:06.238Z,98381.28
2017-12-21T18:54:35.294Z,98381.78
2017-12-21T18:57:01.193Z,98380.41
2017-12-21T18:59:28.133Z,98373.51
2017-12-21T19:01:54.054Z,98377.80
2017-12-21T19:04:22.858Z,98383.88
2017-12-21T19:06:48.786Z,98390.77
2017-12-21T19:09:18.226Z,98394.17
2017-12-21T19:11:44.140Z,98393.34
2017-12-21T19:14:13.157Z,98395.16
2017-12-21T19:16:39.127Z,98394.67
2017-12-21T19:19:08.368Z,98400.64
2017-12-21T19:21:34.283Z,98410.13
2017-12-21T19:24:01.902Z,98412.25
2017-12-21T19:26:27.937Z,98409.28
2017-12-21T19:28:53.851Z,98406.61
2017-12-21T19:31:19.711Z,98398.94
2017-12-21T19:33:45.565Z,98404.86
2017-12-21T19:36:13.183Z,98406.63
2017-12-21T19:38:39.109Z,98407.09
2017-12-21T19:41:07.840Z,98404.58
2017-12-21T19:43:33.721Z,98398.58
2017-12-21T19:46:04.487Z,98399.54
2017-12-21T19:48:30.394Z,98401.65
2017-12-21T19:50:59.453Z,98401.75
2017-12-21T19:53:25.382Z,98409.85
2017-12-21T19:55:52.403Z,98404.22
2017-12-21T19:58:18.296Z,98408.47
2017-12-21T20:00:44.206Z,98411.48
2017-12-21T20:03:10.114Z,98407.92
2017-12-21T20:05:35.993Z,98411.30
2017-12-21T20:08:05.561Z,98409.47
2017-12-21T20:10:31.442Z,98407.66
2017-12-21T20:13:00.524Z,98393.45
2017-12-21T20:15:26.399Z,98381.89
2017-12-21T20:17:53.467Z,98378.47
2017-12-21T20:20:19.491Z,98377.63
2017-12-21T20:22:49.221Z,98379.70
2017-12-21T20:25:15.729Z,98380.19
2017-12-21T20:27:42.878Z,98381.94
2017-12-21T20:30:08.742Z,98386.61
2017-12-21T20:32:37.837Z,98385.33
2017-12-21T20:35:03.732Z,98379.33
2017-12-21T20:37:29.611Z,98384.48
2017-12-21T20:39:55.541Z,98387.84
2017-12-21T20:42:21.420Z,98386.85
2017-12-21T20:44:51.354Z,98384.21
2017-12-21T20:47:18.083Z,98383.31
2017-12-21T20:49:50.355Z,98384.54
2017-12-21T20:52:16.262Z,98384.56
2017-12-21T20:54:42.172Z,98384.13
2017-12-21T20:57:08.159Z,98386.29
2017-12-21T20:59:34.074Z,98385.02
2017-12-21T21:01:59.995Z,98350.86
2017-12-21T21:04:28.340Z,98386.72
2017-12-21T21:06:54.295Z,98389.64
2017-12-21T21:09:24.368Z,98392.19
2017-12-21T21:11:56.899Z,98393.40
2017-12-21T21:14:22.743Z,98398.19
2017-12-21T21:16:48.763Z,98396.38
2017-12-21T21:19:14.650Z,98400.75
2017-12-21T21:21:40.580Z,98403.72
2017-12-21T21:24:06.466Z,98400.72
2017-12-21T21:26:32.354Z,98405.45
2017-12-21T21:28:58.264Z,98402.95
2017-12-21T21:31:24.188Z,98403.44
2017-12-21T21:33:58.372Z,98403.88
2017-12-21T21:36:24.226Z,98409.00
2017-12-21T21:38:50.310Z,98411.95
2017-12-21T21:41:16.306Z,98413.22
2017-12-21T21:43:42.178Z,98414.03
2017-12-21T21:46:08.381Z,98404.50
2017-12-21T21:48:34.263Z,98407.22
2017-12-21T21:51:00.184Z,98408.77
2017-12-21T21:53:26.102Z,98409.13
2017-12-21T21:55:51.975Z,98409.07
2017-12-21T21:58:21.487Z,98415.09
2017-12-21T22:00:47.440Z,98413.21
2017-12-21T22:03:16.611Z,98405.73
2017-12-21T22:05:42.527Z,98419.53
2017-12-21T22:08:09.417Z,98414.89
2017-12-21T22:10:35.334Z,98413.86
2017-12-21T22:13:04.293Z,98425.02
2017-12-21T22:15:33.418Z,98418.51
2017-12-21T22:17:59.420Z,98421.48
2017-12-21T22:20:25.376Z,98422.27
2017-12-21T22:22:53.731Z,98418.05
2017-12-21T22:25:19.577Z,98416.27
2017-12-21T22:27:45.458Z,98413.73
2017-12-21T22:30:11.315Z,98412.38
2017-12-21T22:32:37.164Z,98413.35
2017-12-21T22:35:06.719Z,98412.48
2017-12-21T22:37:36.449Z,98417.67
2017-12-21T22:40:02.335Z,98409.11
2017-12-21T22:42:28.236Z,98407.13
2017-12-21T22:44:54.985Z,98406.13
2017-12-21T22:47:21.333Z,98402.47
2017-12-21T22:49:50.263Z,98395.72
2017-12-21T22:52:16.167Z,98389.41
2017-12-21T22:54:45.630Z,98389.46
2017-12-21T22:57:11.544Z,98387.71
2017-12-21T22:59:40.568Z,98382.91
2017-12-21T23:02:06.477Z,98380.83
2017-12-21T23:04:32.366Z,98382.55
2017-12-21T23:06:58.278Z,98384.80
2017-12-21T23:09:24.201Z,98379.53
2017-12-21T23:11:51.298Z,98342.50
2017-12-21T23:14:17.179Z,98377.94
2017-12-21T23:16:46.690Z,98373.31
2017-12-21T23:19:16.271Z,98374.09
2017-12-21T23:21:42.231Z,98365.11
2017-12-21T23:24:08.080Z,98362.87
2017-12-21T23:26:34.861Z,98368.52
2017-12-21T23:29:00.764Z,98365.11
2017-12-21T23:31:30.207Z,98365.56
2017-12-21T23:33:56.256Z,98364.31
2017-12-21T23:36:26.003Z,98361.73
2017-12-21T23:38:51.841Z,98356.49
2017-12-21T23:41:17.833Z,98353.45
2017-12-21T23:43:43.720Z,98361.14
2017-12-21T23:46:09.643Z,98363.70
2017-12-21T23:48:36.461Z,98363.76
2017-12-21T23:51:02.391Z,98363.26
2017-12-21T23:53:32.257Z,98358.94
2017-12-21T23:55:58.183Z,98355.58
2017-12-21T23:58:27.228Z,98352.66
